Litchfield, Illinois
Current Conditions -  °F | °C
As of 7:15 AM on Thursday 27 Nov 2014 (Local Time) from K3LF Reporting Station
Haze Haze  
Wind Chill: 16°   Ceiling: 2500
Heat Index: 26°   Visibility: 4mi
Dew Point: 22°   Wind: 9mph
Humidity: 86%   Direction: 310°NW
Pressure: 30.4"   Gusts: NA
Location:  39.18°N, 89.65°W
Report Text: K3LF 271315Z AUTO 31008KT 4SM BR OVC025 M04/M06 A3040 RMK AO2 T10361057
Loading
Personal Weather Stations






























Interactive Weather Map New forecast layout! Learn more

10-Day Weather Forecast

Advertisements
Track Severe Weather on mobile